createdAt,value
2018-09-19T00:02:02.065Z,99797.52
2018-09-19T00:04:29.875Z,99796.95
2018-09-19T00:06:57.591Z,99799.45
2018-09-19T00:09:25.290Z,99791.03
2018-09-19T00:11:53.008Z,99797.17
2018-09-19T00:14:20.719Z,99809.06
2018-09-19T00:16:48.435Z,99797.74
2018-09-19T00:19:16.177Z,99801.07
2018-09-19T00:21:44.023Z,99795.78
2018-09-19T00:24:11.859Z,99792.28
2018-09-19T00:26:39.550Z,99786.71
2018-09-19T00:29:07.251Z,99781.78
2018-09-19T00:31:34.975Z,99796.25
2018-09-19T00:34:02.739Z,99797.11
2018-09-19T00:36:30.451Z,99801.36
2018-09-19T00:38:58.127Z,99799.97
2018-09-19T00:41:25.919Z,99794.69
2018-09-19T00:43:53.706Z,99791.87
2018-09-19T00:46:21.412Z,99784.30
2018-09-19T00:48:49.208Z,99784.30
2018-09-19T00:51:16.915Z,99784.23
2018-09-19T00:53:44.637Z,99779.16
2018-09-19T00:56:12.372Z,99775.88
2018-09-19T00:58:40.128Z,99769.09
2018-09-19T01:01:07.926Z,99761.91
2018-09-19T01:03:35.671Z,99749.09
2018-09-19T01:06:03.403Z,99746.66
2018-09-19T01:08:31.108Z,99743.44
2018-09-19T01:10:58.875Z,99738.91
2018-09-19T01:13:43.387Z,99738.83
2018-09-19T01:16:11.171Z,99737.33
2018-09-19T01:18:38.865Z,99738.47
2018-09-19T01:21:06.660Z,99741.87
2018-09-19T01:23:34.353Z,99740.39
2018-09-19T01:26:02.060Z,99725.17
2018-09-19T01:28:29.830Z,99717.63
2018-09-19T01:30:57.536Z,99721.05
2018-09-19T01:33:25.257Z,99716.98
2018-09-19T01:35:53.002Z,99705.47
2018-09-19T01:38:20.693Z,99707.15
2018-09-19T01:40:48.401Z,99701.39
2018-09-19T01:43:16.157Z,99699.14
2018-09-19T01:45:43.879Z,99696.02
2018-09-19T01:48:11.596Z,99689.97
2018-09-19T01:50:39.401Z,99681.50
2018-09-19T01:53:07.124Z,99678.20
2018-09-19T01:55:34.810Z,99682.91
2018-09-19T01:58:02.547Z,99676.58
2018-09-19T02:00:30.436Z,99678.57
2018-09-19T02:02:58.126Z,99673.55
2018-09-19T02:05:25.839Z,99661.10
2018-09-19T02:07:53.570Z,99645.62
2018-09-19T02:10:21.268Z,99648.07
2018-09-19T02:12:48.957Z,99644.84
2018-09-19T02:15:16.809Z,99632.28
2018-09-19T02:17:44.496Z,99627.37
2018-09-19T02:20:12.201Z,99622.74
2018-09-19T02:22:39.973Z,99624.81
2018-09-19T02:25:07.727Z,99630.38
2018-09-19T02:27:35.433Z,99624.03
2018-09-19T02:30:03.423Z,99628.31
2018-09-19T02:32:31.180Z,99628.59
2018-09-19T02:34:58.841Z,99629.44
2018-09-19T02:37:26.554Z,99615.23
2018-09-19T02:39:54.272Z,99615.89
2018-09-19T02:42:22.002Z,99615.70
2018-09-19T02:44:49.705Z,99614.77
2018-09-19T02:47:17.401Z,99616.55
2018-09-19T02:49:45.140Z,99616.83
2018-09-19T02:52:12.827Z,99617.80
2018-09-19T02:54:40.516Z,99610.59
2018-09-19T02:57:08.204Z,99606.34
2018-09-19T02:59:35.971Z,99596.17
2018-09-19T03:02:03.656Z,99592.69
2018-09-19T03:04:31.367Z,99592.49
2018-09-19T03:06:59.082Z,99592.82
2018-09-19T03:09:26.803Z,99580.30
2018-09-19T03:11:54.515Z,99585.45
2018-09-19T03:14:22.228Z,99583.83
2018-09-19T03:19:17.713Z,99575.59
2018-09-19T03:21:45.417Z,99562.16
2018-09-19T03:24:13.195Z,99559.93
2018-09-19T03:26:40.918Z,99558.73
2018-09-19T03:29:08.664Z,99561.30
2018-09-19T03:31:36.391Z,99553.44
2018-09-19T03:34:04.168Z,99547.23
2018-09-19T03:36:31.940Z,99544.11
2018-09-19T03:38:59.659Z,99536.48
2018-09-19T03:41:27.388Z,99536.47
2018-09-19T03:43:55.124Z,99532.66
2018-09-19T03:46:22.851Z,99532.48
2018-09-19T03:48:50.615Z,99525.02
2018-09-19T03:51:18.323Z,99516.27
2018-09-19T03:53:46.052Z,99515.58
2018-09-19T03:56:13.832Z,99513.18
2018-09-19T03:58:41.552Z,99494.38
2018-09-19T04:01:09.260Z,99497.66
2018-09-19T04:03:37.042Z,99500.00
2018-09-19T04:06:04.793Z,99497.97
2018-09-19T04:08:32.527Z,99493.29
2018-09-19T04:11:00.301Z,99494.49
2018-09-19T04:13:28.005Z,99494.73
2018-09-19T04:15:55.741Z,99483.55
2018-09-19T04:18:23.552Z,99482.94
2018-09-19T04:20:51.284Z,99479.11
2018-09-19T04:23:18.995Z,99477.46
2018-09-19T04:25:46.779Z,99466.23
2018-09-19T04:28:14.513Z,99470.36
2018-09-19T04:30:42.377Z,99460.70
2018-09-19T04:33:10.103Z,99463.64
2018-09-19T04:35:37.921Z,99466.79
2018-09-19T04:38:05.819Z,99469.25
2018-09-19T04:40:33.638Z,99471.20
2018-09-19T04:43:01.348Z,99476.28
2018-09-19T04:45:29.083Z,99494.66
2018-09-19T04:47:56.817Z,99496.36
2018-09-19T04:50:24.609Z,99506.03
2018-09-19T04:52:52.343Z,99505.80
2018-09-19T04:55:20.050Z,99519.23
2018-09-19T04:57:47.791Z,99512.94
2018-09-19T05:00:15.496Z,99512.46
2018-09-19T05:02:43.189Z,99514.41
2018-09-19T05:05:10.899Z,99509.09
2018-09-19T05:07:38.574Z,99503.69
2018-09-19T05:10:06.292Z,99503.22
2018-09-19T05:12:34.035Z,99499.57
2018-09-19T05:15:01.753Z,99493.20
2018-09-19T05:17:29.515Z,99486.42
2018-09-19T05:19:57.320Z,99479.30
2018-09-19T05:22:25.044Z,99467.72
2018-09-19T05:24:52.773Z,99467.48
2018-09-19T05:27:20.473Z,99454.91
2018-09-19T05:29:48.244Z,99441.52
2018-09-19T05:32:15.974Z,99432.45
2018-09-19T05:34:43.687Z,99431.48
2018-09-19T05:37:11.412Z,99423.75
2018-09-19T05:39:39.100Z,99429.31
2018-09-19T05:42:06.857Z,99425.22
2018-09-19T05:44:34.693Z,99419.77
2018-09-19T05:47:02.402Z,99415.05
2018-09-19T05:49:30.195Z,99404.31
2018-09-19T05:51:57.941Z,99402.51
2018-09-19T05:54:25.699Z,99402.27
2018-09-19T05:56:53.398Z,99397.18
2018-09-19T05:59:21.116Z,99394.76
2018-09-19T06:01:48.848Z,99384.02
2018-09-19T06:04:16.536Z,99376.75
2018-09-19T06:06:44.269Z,99373.98
2018-09-19T06:09:12.438Z,99372.52
2018-09-19T06:11:40.443Z,99372.41
2018-09-19T06:14:08.240Z,99372.27
2018-09-19T06:16:36.097Z,99382.66
2018-09-19T06:19:03.827Z,99384.36
2018-09-19T06:21:31.523Z,99384.49
2018-09-19T06:23:59.253Z,99376.14
2018-09-19T06:26:26.980Z,99365.87
2018-09-19T06:28:54.806Z,99368.77
2018-09-19T06:31:23.178Z,99372.26
2018-09-19T06:33:50.983Z,99375.77
2018-09-19T06:36:18.704Z,99375.89
2018-09-19T06:38:46.569Z,99376.98
2018-09-19T06:41:14.356Z,99374.92
2018-09-19T06:43:42.116Z,99372.48
2018-09-19T06:46:09.846Z,99377.23
2018-09-19T06:48:37.599Z,99375.27
2018-09-19T06:51:05.370Z,99373.69
2018-09-19T06:53:33.500Z,99377.06
2018-09-19T06:56:02.079Z,99380.58
2018-09-19T06:58:29.799Z,99381.32
2018-09-19T07:00:57.565Z,99391.23
2018-09-19T07:03:25.325Z,99386.99
2018-09-19T07:05:53.128Z,99389.89
2018-09-19T07:08:20.819Z,99391.08
2018-09-19T07:10:48.530Z,99392.19
2018-09-19T07:13:16.294Z,99389.52
2018-09-19T07:15:44.136Z,99378.50
2018-09-19T07:18:11.855Z,99367.00
2018-09-19T07:20:39.671Z,99357.91
2018-09-19T07:23:07.406Z,99358.17
2018-09-19T07:25:35.167Z,99359.14
2018-09-19T07:28:02.909Z,99351.52
2018-09-19T07:30:30.632Z,99348.48
2018-09-19T07:32:58.399Z,99347.41
2018-09-19T07:35:26.174Z,99343.31
2018-09-19T07:37:53.877Z,99346.68
2018-09-19T07:40:21.600Z,99355.74
2018-09-19T07:42:49.453Z,99360.22
2018-09-19T07:45:17.149Z,99363.23
2018-09-19T07:47:44.841Z,99366.97
2018-09-19T07:50:12.601Z,99363.67
2018-09-19T07:52:40.336Z,99363.91
2018-09-19T07:55:08.512Z,99369.45
2018-09-19T07:57:36.583Z,99370.94
2018-09-19T08:00:04.628Z,99362.45
2018-09-19T08:02:32.356Z,99363.16
2018-09-19T08:05:00.119Z,99359.17
2018-09-19T08:07:27.876Z,99354.80
2018-09-19T08:09:55.614Z,99352.06
2018-09-19T08:12:23.366Z,99364.16
2018-09-19T08:14:51.153Z,99366.59
2018-09-19T08:17:18.886Z,99362.72
2018-09-19T08:19:46.577Z,99366.56
2018-09-19T08:22:14.355Z,99360.76
2018-09-19T08:24:42.086Z,99367.89
2018-09-19T08:27:10.123Z,99361.23
2018-09-19T08:29:37.844Z,99361.46
2018-09-19T08:32:05.592Z,99360.47
2018-09-19T08:34:33.369Z,99364.57
2018-09-19T08:37:01.082Z,99357.66
2018-09-19T08:39:29.698Z,99358.24
2018-09-19T08:41:57.433Z,99355.10
2018-09-19T08:44:25.196Z,99359.69
2018-09-19T08:46:52.978Z,99353.87
2018-09-19T08:49:20.685Z,99355.66
2018-09-19T08:51:48.398Z,99363.91
2018-09-19T08:54:16.132Z,99375.05
2018-09-19T08:56:43.868Z,99375.37
2018-09-19T08:59:11.617Z,99378.41
2018-09-19T09:01:39.353Z,99367.27
2018-09-19T09:04:07.069Z,99355.98
2018-09-19T09:06:34.812Z,99347.77
2018-09-19T09:09:02.962Z,99356.45
2018-09-19T09:11:30.686Z,99362.81
2018-09-19T09:13:58.439Z,99357.47
2018-09-19T09:16:26.236Z,99372.58
2018-09-19T09:18:54.077Z,99378.27
2018-09-19T09:21:21.776Z,99375.23
2018-09-19T09:23:49.521Z,99377.86
2018-09-19T09:26:17.327Z,99367.52
2018-09-19T09:28:45.085Z,99367.72
2018-09-19T09:31:12.862Z,99365.25
2018-09-19T09:33:40.624Z,99365.05
2018-09-19T09:36:08.344Z,99359.14
2018-09-19T09:38:36.103Z,99359.38
2018-09-19T09:41:03.887Z,99354.23
2018-09-19T09:43:31.719Z,99356.61
2018-09-19T09:45:59.482Z,99355.30
2018-09-19T09:48:27.195Z,99353.80
2018-09-19T09:50:54.924Z,99346.23
2018-09-19T09:53:22.651Z,99358.45
2018-09-19T09:55:50.372Z,99358.34
2018-09-19T09:58:18.236Z,99355.73
2018-09-19T10:00:45.984Z,99355.97
2018-09-19T10:03:13.703Z,99357.44
2018-09-19T10:05:41.558Z,99360.95
2018-09-19T10:08:09.459Z,99358.48
2018-09-19T10:10:38.024Z,99357.67
2018-09-19T10:13:05.784Z,99364.72
2018-09-19T10:15:33.806Z,99365.84
2018-09-19T10:18:01.541Z,99358.83
2018-09-19T10:20:29.309Z,99365.22
2018-09-19T10:22:57.109Z,99361.00
2018-09-19T10:25:25.101Z,99364.36
2018-09-19T10:27:52.895Z,99366.26
2018-09-19T10:30:20.597Z,99374.09
2018-09-19T10:32:48.383Z,99376.76
2018-09-19T10:35:16.151Z,99380.27
2018-09-19T10:37:43.935Z,99385.19
2018-09-19T10:40:11.659Z,99384.41
2018-09-19T10:42:39.407Z,99388.58
2018-09-19T10:45:07.559Z,99392.63
2018-09-19T10:47:35.655Z,99390.75
2018-09-19T10:50:03.380Z,99391.51
2018-09-19T10:52:31.079Z,99398.00
2018-09-19T10:54:58.827Z,99409.59
2018-09-19T10:57:26.586Z,99406.91
2018-09-19T10:59:54.315Z,99410.52
2018-09-19T11:02:22.049Z,99417.91
2018-09-19T11:04:49.753Z,99427.55
2018-09-19T11:07:17.523Z,99422.39
2018-09-19T11:09:45.261Z,99420.83
2018-09-19T11:12:13.008Z,99426.05
2018-09-19T11:14:40.759Z,99414.58
2018-09-19T11:17:08.456Z,99425.28
2018-09-19T11:19:36.176Z,99430.34
2018-09-19T11:22:03.906Z,99432.00
2018-09-19T11:24:31.696Z,99428.08
2018-09-19T11:26:59.451Z,99430.27
2018-09-19T11:29:27.231Z,99434.91
2018-09-19T11:31:54.979Z,99438.44
2018-09-19T11:34:22.709Z,99433.48
2018-09-19T11:36:50.735Z,99429.93
2018-09-19T11:39:18.470Z,99432.41
2018-09-19T11:41:46.237Z,99440.92
2018-09-19T11:44:13.966Z,99440.21
2018-09-19T11:46:41.712Z,99449.03
2018-09-19T11:49:09.603Z,99450.44
2018-09-19T11:51:37.312Z,99450.63
2018-09-19T11:54:05.126Z,99452.63
2018-09-19T11:56:32.860Z,99451.13
2018-09-19T11:59:00.570Z,99452.88
2018-09-19T12:01:28.300Z,99456.73
2018-09-19T12:03:56.012Z,99460.43
2018-09-19T12:06:23.788Z,99468.17
2018-09-19T12:08:51.524Z,99474.58
2018-09-19T12:11:19.284Z,99478.91
2018-09-19T12:13:47.014Z,99477.25
2018-09-19T12:16:14.705Z,99467.74
2018-09-19T12:18:42.404Z,99472.34
2018-09-19T12:21:10.135Z,99471.95
2018-09-19T12:23:37.892Z,99479.84
2018-09-19T12:26:05.715Z,99478.41
2018-09-19T12:28:33.448Z,99484.54
2018-09-19T12:31:01.190Z,99482.53
2018-09-19T12:33:28.919Z,99479.98
2018-09-19T12:35:56.631Z,99477.87
2018-09-19T12:38:24.397Z,99482.08
2018-09-19T12:40:52.158Z,99487.88
2018-09-19T12:43:19.956Z,99483.37
2018-09-19T12:45:47.861Z,99491.46
2018-09-19T12:48:15.563Z,99489.80
2018-09-19T12:50:43.267Z,99489.51
2018-09-19T12:53:11.012Z,99488.95
2018-09-19T12:55:38.797Z,99481.33
2018-09-19T12:58:06.500Z,99475.91
2018-09-19T13:00:34.233Z,99471.56
2018-09-19T13:03:02.058Z,99483.64
2018-09-19T13:05:29.753Z,99491.19
2018-09-19T13:07:57.485Z,99497.87
2018-09-19T13:10:25.203Z,99504.16
2018-09-19T13:12:52.899Z,99516.53
2018-09-19T13:15:20.636Z,99509.16
2018-09-19T13:17:48.386Z,99510.48
2018-09-19T13:20:16.100Z,99513.81
2018-09-19T13:22:43.819Z,99514.86
2018-09-19T13:25:11.701Z,99510.12
2018-09-19T13:27:39.473Z,99515.84
2018-09-19T13:30:07.297Z,99534.41
2018-09-19T13:32:35.007Z,99531.88
2018-09-19T13:35:02.772Z,99536.38
2018-09-19T13:37:30.494Z,99534.84
2018-09-19T13:39:58.474Z,99544.20
2018-09-19T13:42:26.343Z,99554.26
2018-09-19T13:44:54.196Z,99558.55
2018-09-19T13:47:21.993Z,99555.66
2018-09-19T13:49:54.398Z,99553.48
2018-09-19T13:52:22.113Z,99566.97
2018-09-19T13:54:49.862Z,99560.23
2018-09-19T13:57:17.665Z,99555.40
2018-09-19T13:59:45.438Z,99548.72
2018-09-19T14:02:13.187Z,99554.44
2018-09-19T14:04:40.896Z,99554.72
2018-09-19T14:07:08.644Z,99541.82
2018-09-19T14:09:36.420Z,99540.00
2018-09-19T14:12:04.171Z,99531.61
2018-09-19T14:14:31.918Z,99544.70
2018-09-19T14:16:59.650Z,99553.20
2018-09-19T14:19:27.388Z,99546.67
2018-09-19T14:21:55.102Z,99532.84
2018-09-19T14:24:22.873Z,99535.61
2018-09-19T14:26:50.588Z,99537.59
2018-09-19T14:29:18.368Z,99537.52
2018-09-19T14:31:46.133Z,99534.84
2018-09-19T14:34:13.873Z,99537.08
2018-09-19T14:36:41.632Z,99541.61
2018-09-19T14:39:09.350Z,99529.82
2018-09-19T14:41:37.132Z,99529.20
2018-09-19T14:44:04.881Z,99526.08
2018-09-19T14:46:32.572Z,99524.60
2018-09-19T14:49:00.348Z,99530.06
2018-09-19T14:51:28.057Z,99529.80
2018-09-19T14:53:55.777Z,99540.18
2018-09-19T14:56:23.500Z,99547.05
2018-09-19T14:58:51.264Z,99556.52
2018-09-19T15:01:19.023Z,99557.85
2018-09-19T15:03:46.729Z,99575.49
2018-09-19T15:06:14.484Z,99566.30
2018-09-19T15:08:42.205Z,99568.55
2018-09-19T15:11:09.903Z,99573.88
2018-09-19T15:13:37.767Z,99582.27
2018-09-19T15:16:05.568Z,99575.95
2018-09-19T15:18:33.261Z,99571.95
2018-09-19T15:21:01.048Z,99573.77
2018-09-19T15:23:28.739Z,99568.59
2018-09-19T15:25:56.478Z,99589.34
2018-09-19T15:28:24.239Z,99586.81
2018-09-19T15:30:52.037Z,99581.26
2018-09-19T15:33:19.827Z,99587.47
2018-09-19T15:35:47.580Z,99593.57
2018-09-19T15:38:15.320Z,99599.18
2018-09-19T15:40:43.041Z,99613.76
2018-09-19T15:43:10.756Z,99615.80
2018-09-19T15:45:38.498Z,99626.70
2018-09-19T15:48:06.273Z,99625.73
2018-09-19T15:50:34.048Z,99629.16
2018-09-19T15:53:01.778Z,99627.23
2018-09-19T15:55:29.531Z,99629.47
2018-09-19T15:57:57.249Z,99635.78
2018-09-19T16:00:25.569Z,99638.34
2018-09-19T16:02:53.369Z,99643.25
2018-09-19T16:05:21.062Z,99652.48
2018-09-19T16:07:48.776Z,99666.95
2018-09-19T16:10:16.555Z,99681.31
2018-09-19T16:12:44.262Z,99700.86
2018-09-19T16:15:12.060Z,99708.28
2018-09-19T16:17:39.816Z,99701.27
2018-09-19T16:20:07.536Z,99711.60
2018-09-19T16:22:35.304Z,99710.16
2018-09-19T16:25:03.080Z,99704.22
2018-09-19T16:27:30.779Z,99695.39
2018-09-19T16:29:58.484Z,99692.12
2018-09-19T16:32:26.281Z,99687.63
2018-09-19T16:34:54.183Z,99679.28
2018-09-19T16:37:21.908Z,99656.00
2018-09-19T16:39:49.651Z,99631.28
2018-09-19T16:42:17.399Z,99643.14
2018-09-19T16:44:45.121Z,99645.55
2018-09-19T16:47:12.911Z,99677.11
2018-09-19T16:49:40.680Z,99689.96
2018-09-19T16:52:08.420Z,99698.47
2018-09-19T16:54:36.136Z,99659.56
2018-09-19T16:57:03.880Z,99629.84
2018-09-19T16:59:31.619Z,99642.48
2018-09-19T17:01:59.337Z,99651.57
2018-09-19T17:04:27.054Z,99656.55
2018-09-19T17:06:54.845Z,99663.47
2018-09-19T17:09:22.548Z,99655.34
2018-09-19T17:11:50.269Z,99660.70
2018-09-19T17:14:18.004Z,99667.13
2018-09-19T17:16:45.696Z,99654.77
2018-09-19T17:19:13.566Z,99650.17
2018-09-19T17:21:41.283Z,99650.41
2018-09-19T17:24:09.014Z,99646.77
2018-09-19T17:26:36.773Z,99654.17
2018-09-19T17:29:04.849Z,99665.66
2018-09-19T17:31:32.566Z,99679.34
2018-09-19T17:34:00.296Z,99687.56
2018-09-19T17:36:28.016Z,99684.53
2018-09-19T17:38:55.751Z,99678.93
2018-09-19T17:41:23.445Z,99675.75
2018-09-19T17:43:51.152Z,99662.88
2018-09-19T17:46:18.928Z,99664.68
2018-09-19T17:48:46.781Z,99676.74
2018-09-19T17:51:14.528Z,99683.86
2018-09-19T17:53:42.225Z,99690.47
2018-09-19T17:56:09.995Z,99697.59
2018-09-19T17:58:37.774Z,99705.40
2018-09-19T18:01:05.567Z,99704.53
2018-09-19T18:03:33.366Z,99714.23
2018-09-19T18:06:01.104Z,99715.39
2018-09-19T18:08:28.858Z,99727.08
2018-09-19T18:10:56.618Z,99720.21
2018-09-19T18:13:24.328Z,99723.12
2018-09-19T18:15:52.037Z,99719.06
2018-09-19T18:18:19.747Z,99721.17
2018-09-19T18:20:47.532Z,99716.95
2018-09-19T18:23:15.244Z,99717.86
2018-09-19T18:25:43.000Z,99721.68
2018-09-19T18:28:10.697Z,99722.59
2018-09-19T18:30:38.435Z,99731.23
2018-09-19T18:33:06.172Z,99741.44
2018-09-19T18:35:33.939Z,99746.78
2018-09-19T18:38:01.699Z,99743.05
2018-09-19T18:40:29.419Z,99750.02
2018-09-19T18:42:57.140Z,99753.09
2018-09-19T18:45:24.876Z,99755.78
2018-09-19T18:47:52.961Z,99754.02
2018-09-19T18:50:20.697Z,99759.23
2018-09-19T18:52:48.421Z,99753.39
2018-09-19T18:55:16.152Z,99746.58
2018-09-19T18:57:43.935Z,99746.98
2018-09-19T19:00:11.677Z,99747.60
2018-09-19T19:02:39.432Z,99752.92
2018-09-19T19:05:07.222Z,99751.25
2018-09-19T19:07:34.938Z,99757.42
2018-09-19T19:10:02.639Z,99760.58
2018-09-19T19:12:30.312Z,99760.73
2018-09-19T19:14:58.101Z,99754.04
2018-09-19T19:17:25.799Z,99758.41
2018-09-19T19:19:53.503Z,99755.27
2018-09-19T19:22:21.221Z,99747.40
2018-09-19T19:24:48.948Z,99752.15
2018-09-19T19:27:16.703Z,99755.27
2018-09-19T19:29:44.415Z,99757.17
2018-09-19T19:32:12.151Z,99756.98
2018-09-19T19:34:39.977Z,99766.34
2018-09-19T19:37:07.830Z,99761.70
2018-09-19T19:39:35.532Z,99775.42
2018-09-19T19:42:03.228Z,99772.77
2018-09-19T19:44:31.373Z,99769.84
2018-09-19T19:46:59.145Z,99774.48
2018-09-19T19:49:26.861Z,99781.58
2018-09-19T19:51:54.760Z,99780.83
2018-09-19T19:54:22.489Z,99771.64
2018-09-19T19:56:50.204Z,99761.82
2018-09-19T19:59:18.038Z,99754.34
2018-09-19T20:01:45.720Z,99756.05
2018-09-19T20:04:13.408Z,99751.69
2018-09-19T20:06:41.153Z,99766.92
2018-09-19T20:09:09.236Z,99764.55
2018-09-19T20:11:37.633Z,99765.20
2018-09-19T20:14:05.507Z,99762.28
2018-09-19T20:16:33.214Z,99759.83
2018-09-19T20:19:00.946Z,99750.55
2018-09-19T20:21:28.655Z,99741.59
2018-09-19T20:23:56.324Z,99736.45
2018-09-19T20:26:24.008Z,99734.38
2018-09-19T20:28:51.747Z,99723.32
2018-09-19T20:31:19.412Z,99713.78
2018-09-19T20:33:47.144Z,99715.76
2018-09-19T20:36:14.854Z,99717.63
2018-09-19T20:38:42.528Z,99694.96
2018-09-19T20:41:10.265Z,99666.11
2018-09-19T20:43:37.986Z,99644.00
2018-09-19T20:46:05.967Z,99627.06
2018-09-19T20:48:33.666Z,99617.34
2018-09-19T20:51:01.400Z,99608.73
2018-09-19T20:53:29.110Z,99609.89
2018-09-19T20:55:56.795Z,99625.19
2018-09-19T20:58:24.500Z,99651.44
2018-09-19T21:00:52.176Z,99663.06
2018-09-19T21:03:19.844Z,99661.28
2018-09-19T21:05:47.545Z,99667.50
2018-09-19T21:08:15.293Z,99671.47
2018-09-19T21:10:43.048Z,99665.83
2018-09-19T21:13:10.716Z,99669.80
2018-09-19T21:15:38.416Z,99670.07
2018-09-19T21:18:06.189Z,99667.31
2018-09-19T21:20:33.974Z,99663.55
2018-09-19T21:23:01.711Z,99654.09
2018-09-19T21:25:29.407Z,99646.44
2018-09-19T21:27:57.132Z,99642.47
2018-09-19T21:30:24.901Z,99644.65
2018-09-19T21:32:52.601Z,99638.23
2018-09-19T21:35:20.295Z,99635.78
2018-09-19T21:37:48.037Z,99620.64
2018-09-19T21:40:15.749Z,99619.79
2018-09-19T21:42:43.453Z,99628.12
2018-09-19T21:45:11.201Z,99632.83
2018-09-19T21:47:38.924Z,99630.77
2018-09-19T21:50:06.693Z,99630.30
2018-09-19T21:52:34.460Z,99627.26
2018-09-19T21:55:02.386Z,99621.61
2018-09-19T21:57:30.103Z,99630.37
2018-09-19T21:59:57.847Z,99610.52
2018-09-19T22:02:25.604Z,99593.62
2018-09-19T22:04:53.476Z,99598.06
2018-09-19T22:07:21.168Z,99596.27
2018-09-19T22:09:48.871Z,99597.59
2018-09-19T22:12:16.706Z,99600.25
2018-09-19T22:14:44.463Z,99588.89
2018-09-19T22:17:12.237Z,99592.58
2018-09-19T22:19:40.013Z,99599.11
2018-09-19T22:22:07.692Z,99602.42
2018-09-19T22:24:35.403Z,99604.79
2018-09-19T22:27:03.136Z,99604.13
2018-09-19T22:29:30.840Z,99596.18
2018-09-19T22:31:58.694Z,99602.52
2018-09-19T22:34:26.373Z,99601.27
2018-09-19T22:36:54.082Z,99603.52
2018-09-19T22:39:21.838Z,99599.45
2018-09-19T22:41:49.582Z,99597.58
2018-09-19T22:44:17.312Z,99591.51
2018-09-19T22:46:45.000Z,99578.48
2018-09-19T22:49:12.753Z,99577.34
2018-09-19T22:51:40.511Z,99569.59
2018-09-19T22:54:08.225Z,99567.22
2018-09-19T22:56:36.005Z,99574.87
2018-09-19T22:59:03.722Z,99575.98
2018-09-19T23:01:31.437Z,99582.78
2018-09-19T23:03:59.172Z,99574.11
2018-09-19T23:06:26.861Z,99560.95
2018-09-19T23:08:54.620Z,99550.20
2018-09-19T23:11:22.309Z,99555.36
2018-09-19T23:13:50.012Z,99552.80
2018-09-19T23:16:17.776Z,99556.16
2018-09-19T23:18:45.564Z,99547.56
2018-09-19T23:21:13.408Z,99539.74
2018-09-19T23:23:41.174Z,99536.06
2018-09-19T23:26:08.878Z,99527.74
2018-09-19T23:28:36.640Z,99522.00
2018-09-19T23:31:04.319Z,99513.22
2018-09-19T23:33:32.011Z,99516.53
2018-09-19T23:35:59.744Z,99516.45
2018-09-19T23:38:27.532Z,99511.92
2018-09-19T23:40:55.236Z,99503.05
2018-09-19T23:43:22.936Z,99502.16
2018-09-19T23:45:50.748Z,99489.12
2018-09-19T23:48:18.467Z,99500.00
2018-09-19T23:50:46.236Z,99499.89
2018-09-19T23:53:13.952Z,99493.20
2018-09-19T23:55:41.733Z,99496.31
2018-09-19T23:58:09.424Z,99493.48
